Kolkata, India
Current Conditions -  °F | °C
As of 7:20 PM on Saturday 22 Nov 2014 (Local Time) from VECC Reporting Station
Haze Haze  
Wind Chill: 70°   Ceiling: Unl
Heat Index: 70°   Visibility: 1.5mi
Dew Point: 57°   Wind: 0mph
Humidity: 64%   Direction: NA
Pressure: 29.88"   Gusts: NA
Location:  22.54°N, 88.33°E
Report Text: VECC 221420Z 00000KT 2500 HZ NSC 21/14 Q1012 NOSIG
Loading
Personal Weather Stations






























Interactive Weather Map New forecast layout! Learn more

10-Day Weather Forecast

Advertisements
Track Severe Weather on mobile